Latest Weather Observations for Wyndham Airport

IDD60801

Issued at 11:31 pm CST Tuesday 3 May 2016 (issued every 30 minutes, with the page automatically refreshed every 10 minutes)

About weather observations | Map of weather stations | Latest weather observations for NT | Other Formats
Station Details ID: 001006 Name: WYNDHAM AERO Lat: -15.51 Lon: 128.15 Height: 3.8 m
Data from the previous 72 hours. | See also: Recent months at Wyndham Airport
Date/Time
CST
Temp
°C
App
Temp
°C
Dew
Point
Rel
Hum
%
Delta-T
°C
Wind Press
QNH
hPa
Press
MSL
hPa
Rain
since 9 am
mm
Dir
 
Spd
km/h
Gust
km/h
Spd
kts
Gust
kts
03/11:30pm 27.8 30.3 23.2 76 3.1 ESE 15 19 8 10 1012.6 1012.6 0.0
03/11:00pm 28.1 30.4 23.5 76 3.2 E 17 20 9 11 1012.7 1012.7 0.0
03/10:30pm 28.1 30.9 23.7 77 3.0 ESE 15 17 8 9 1012.2 1012.2 0.0
03/10:00pm 28.2 32.1 23.6 76 3.2 ESE 9 11 5 6 1012.1 1012.1 0.0
03/09:30pm 28.7 33.0 23.6 74 3.5 ESE 7 11 4 6 1012.4 1012.4 0.0
03/09:00pm 28.6 32.4 23.5 74 3.5 E 9 13 5 7 1012.2 1012.2 0.0
03/08:30pm 28.5 31.5 23.4 74 3.5 E 13 15 7 8 1011.9 1011.9 0.0
03/08:00pm 28.3 30.5 23.2 74 3.5 ESE 17 20 9 11 1011.4 1011.4 0.0
03/07:30pm 28.5 30.9 23.0 72 3.8 ESE 15 19 8 10 1010.3 1010.3 0.0
03/07:00pm 28.8 32.0 23.0 71 4.0 ESE 11 13 6 7 1009.7 1009.7 0.0
03/06:30pm 29.3 31.1 22.5 67 4.6 E 17 20 9 11 1009.3 1009.3 0.0
03/06:00pm 30.3 32.6 22.7 64 5.2 E 15 19 8 10 1009.2 1009.2 0.0
03/05:30pm 31.1 33.5 23.0 62 5.6 E 15 19 8 10 1008.7 1008.7 0.0
03/05:00pm 31.1 33.4 23.5 64 5.3 ESE 17 24 9 13 1008.6 1008.6 0.0
03/04:30pm 29.7 29.4 21.9 63 5.3 E 26 35 14 19 1008.9 1008.9 0.0
03/04:00pm 29.9 30.6 22.9 66 4.8 E 24 35 13 19 1008.8 1008.8 0.0
03/03:30pm 29.9 30.2 24.3 72 3.9 NE 30 39 16 21 1008.5 1008.5 0.0
03/03:00pm 33.4 34.6 22.5 52 7.5 N 20 35 11 19 1007.9 1007.9 0.0
03/02:30pm 35.1 37.2 22.4 47 8.7 NW 15 24 8 13 1007.9 1007.9 0.0
03/02:00pm 35.8 39.6 22.7 46 9.1 N 7 9 4 5 1008.7 1008.7 0.0
03/01:30pm 35.6 38.5 22.5 46 9.0 N 11 19 6 10 1009.3 1009.3 0.0
03/01:00pm 35.2 39.6 23.8 51 8.0 NW 7 13 4 7 1009.8 1009.8 0.0
03/12:30pm 34.9 38.6 23.9 53 7.7 ENE 11 17 6 9 1010.5 1010.5 0.0
03/12:00pm 34.5 38.9 24.4 55 7.1 NNE 9 15 5 8 1011.1 1011.1 0.0
03/11:30am 33.5 38.1 23.8 57 6.8 SE 6 11 3 6 1011.7 1011.7 0.0
03/11:00am 32.7 37.2 23.9 60 6.1 SSW 7 11 4 6 1012.2 1012.2 0.0
03/10:30am 32.2 37.7 24.0 62 5.7 WNW 2 7 1 4 1012.4 1012.4 24.4
03/10:00am 31.8 37.1 24.9 67 4.9 NE 6 7 3 4 1012.3 1012.3 24.4
03/09:30am 30.5 36.6 25.1 73 3.8 WSW 2 6 1 3 1012.0 1012.0 24.4
03/09:00am 29.9 36.2 25.9 79 2.8 SSW 4 7 2 4 1011.6 1011.6 24.4
03/08:30am 28.3 33.9 25.5 85 2.0 SSW 6 7 3 4 1011.2 1011.2 24.4
03/08:00am 27.8 34.0 26.4 92 1.0 NE 6 7 3 4 1010.8 1010.8 24.4
03/07:30am 26.5 31.8 25.3 93 0.8 SE 7 11 4 6 1010.7 1010.7 24.4
03/07:00am 26.6 31.5 25.2 92 1.0 E 9 9 5 5 1010.8 1010.8 24.4
03/06:30am 26.7 31.3 24.7 89 1.4 E 9 11 5 6 1010.8 1010.8 24.4
03/06:00am 26.6 31.0 24.4 88 1.5 ENE 9 9 5 5 1010.7 1010.7 24.4
03/05:30am 27.0 31.1 24.6 87 1.7 E 11 13 6 7 1010.8 1010.8 24.4
03/05:00am 26.6 30.3 23.9 85 1.9 ESE 11 13 6 7 1010.6 1010.6 24.4
03/04:30am 27.0 31.1 23.9 83 2.1 E 9 11 5 6 1010.6 1010.6 24.4
03/04:00am 27.2 30.9 23.9 82 2.3 E 11 11 6 6 1010.6 1010.6 24.4
03/03:30am 26.8 30.5 23.3 81 2.4 SE 9 13 5 7 1010.8 1010.8 24.4
03/03:00am 27.1 31.1 23.1 79 2.7 NE 7 9 4 5 1011.0 1011.0 24.4
03/02:30am 27.4 32.8 23.2 78 2.9 CALM 0 0 0 0 1011.1 1011.1 24.4
03/02:00am 27.7 32.6 23.1 76 3.1 ESE 2 7 1 4 1011.2 1011.2 24.4
03/01:30am 27.7 31.8 22.9 75 3.3 SE 6 7 3 4 1011.4 1011.4 24.4
03/01:00am 27.7 31.6 22.9 75 3.3 E 7 9 4 5 1011.9 1011.9 24.4
03/12:30am 28.0 31.5 22.9 74 3.5 E 9 11 5 6 1011.9 1011.9 24.4
03/12:00am 28.7 33.6 23.6 74 3.5 ENE 4 7 2 4 1011.9 1011.9 24.4
 
Date/Time
CST
Temp
°C
App
Temp
°C
Dew
Point
Rel
Hum
%
Delta-T
°C
Wind Press
QNH
hPa
Press
MSL
hPa
Rain
since 9 am
mm
Dir
 
Spd
km/h
Gust
km/h
Spd
kts
Gust
kts
02/11:30pm 28.6 32.1 23.5 74 3.5 SE 11 13 6 7 1011.7 1011.7 24.4
02/11:00pm 27.9 30.4 22.4 72 3.7 ESE 13 15 7 8 1011.9 1011.9 24.4
02/10:30pm 28.3 30.7 22.3 70 4.1 ESE 13 15 7 8 1012.1 1012.1 24.4
02/10:00pm 29.5 34.8 23.0 68 4.4 CALM 0 0 0 0 1012.3 1012.3 24.4
02/09:30pm 30.2 34.7 22.9 65 5.0 NNE 4 7 2 4 1012.1 1012.1 24.4
02/09:00pm 29.9 33.2 22.6 65 5.0 S 9 11 5 6 1011.7 1011.7 24.4
02/08:30pm 30.5 34.3 22.7 63 5.3 N 7 11 4 6 1011.1 1011.1 24.4
02/08:00pm 31.0 34.9 22.9 62 5.6 ESE 7 11 4 6 1010.7 1010.7 24.4
02/07:30pm 30.1 33.4 21.5 60 5.8 NE 6 11 3 6 1010.3 1010.3 24.4
02/07:00pm 30.8 32.8 20.7 55 6.7 NE 11 19 6 10 1010.0 1010.0 24.4
02/06:30pm 31.6 31.1 19.9 50 7.7 NE 22 30 12 16 1009.6 1009.6 24.4
02/06:00pm 34.2 36.9 22.9 51 7.8 ENE 13 19 7 10 1009.1 1009.1 24.4
02/05:30pm 33.6 38.3 22.7 53 7.5 NE 2 6 1 3 1008.8 1008.8 24.4
02/05:00pm 32.4 36.8 23.4 59 6.2 NNW 6 9 3 5 1008.5 1008.5 24.4
02/04:30pm 30.0 34.2 23.4 67 4.5 NE 7 13 4 7 1008.5 1008.5 24.4
02/04:00pm 28.8 30.1 24.6 78 2.9 SSW 26 37 14 20 1008.8 1008.8 24.4
02/03:45pm 28.1 29.6 25.5 86 1.8 SSW 28 37 15 20 1008.9 1008.9 24.2
02/03:30pm 28.1 30.8 24.7 82 2.4 SSE 19 46 10 25 1009.5 1009.5 23.8
02/03:25pm 26.6 26.1 23.5 83 2.1 SSE 32 50 17 27 1009.7 1009.7 22.0
02/03:19pm 25.3 22.6 21.2 78 2.7 E 37 56 20 30 1009.6 1009.6 15.8
02/03:17pm 26.3 23.6 21.3 74 3.3 ENE 37 56 20 30 1009.9 1009.9 12.2
02/03:13pm 26.6 22.8 21.4 73 3.5 ENE 43 57 23 31 1009.3 1009.3 7.2
02/03:00pm 28.8 26.0 20.3 60 5.6 NNE 35 56 19 30 1008.9 1008.9 0.4
02/02:52pm 32.7 33.0 19.6 46 8.6 ENE 17 35 9 19 1008.6 1008.6 0.0
02/02:30pm 38.2 40.6 20.9 36 11.8 NE 9 19 5 10 1008.6 1008.6 0.0
02/02:00pm 37.4 39.9 20.2 36 11.6 E 7 13 4 7 1009.2 1009.2 0.0
02/01:30pm 36.9 38.6 20.2 37 11.2 NNE 11 20 6 11 1009.8 1009.8 0.0
02/01:00pm 37.4 39.0 20.7 38 11.3 N 13 24 7 13 1010.4 1010.4 0.0
02/12:30pm 36.5 39.0 21.1 40 10.5 NW 9 17 5 9 1011.0 1011.0 0.0
02/12:00pm 35.4 37.8 20.9 42 9.8 WNW 9 15 5 8 1011.3 1011.3 0.0
02/11:30am 35.4 37.8 20.9 42 9.8 WNW 9 15 5 8 1011.6 1011.6 0.0
02/11:00am 34.0 36.2 21.1 47 8.7 W 11 17 6 9 1012.1 1012.1 0.0
02/10:30am 33.3 37.8 21.5 50 8.0 CALM 0 0 0 0 1012.3 1012.3 0.0
02/10:00am 32.7 36.0 21.9 53 7.3 SE 7 11 4 6 1012.2 1012.2 0.0
02/09:30am 31.3 34.6 21.8 57 6.4 ESE 7 9 4 5 1012.1 1012.1 0.0
02/09:00am 30.5 33.3 21.6 59 6.0 ESE 9 11 5 6 1012.0 1012.0 0.0
02/08:30am 29.2 33.0 21.7 64 5.0 NE 4 9 2 5 1011.5 1011.5 0.0
02/08:00am 28.2 30.4 21.2 65 4.7 E 11 13 6 7 1011.0 1011.0 0.0
02/07:30am 27.4 29.4 20.7 67 4.4 E 11 13 6 7 1010.8 1010.8 0.0
02/07:00am 27.8 29.5 20.9 66 4.6 ESE 13 15 7 8 1010.4 1010.4 0.0
02/06:30am 27.0 28.8 20.3 66 4.4 ESE 11 13 6 7 1010.1 1010.1 0.0
02/06:00am 26.9 28.9 20.0 66 4.5 E 9 11 5 6 1009.7 1009.7 0.0
02/05:30am 27.2 31.2 20.5 67 4.4 CALM 0 0 0 0 1009.4 1009.4 0.0
02/05:00am 26.9 29.5 20.0 66 4.5 E 6 7 3 4 1009.3 1009.3 0.0
02/04:30am 27.3 29.9 20.4 66 4.5 E 7 9 4 5 1009.0 1009.0 0.0
02/04:00am 27.2 29.6 20.0 64 4.7 ESE 7 9 4 5 1008.9 1008.9 0.0
02/03:30am 27.7 29.5 20.3 64 4.9 ESE 11 11 6 6 1009.1 1009.1 0.0
02/03:00am 28.7 30.4 21.0 63 5.1 ESE 13 15 7 8 1009.1 1009.1 0.0
02/02:30am 27.6 29.2 19.9 63 5.0 ESE 11 13 6 7 1009.4 1009.4 0.0
02/02:00am 28.1 30.1 19.9 61 5.4 E 9 11 5 6 1009.4 1009.4 0.0
02/01:30am 28.7 30.4 20.2 60 5.6 E 11 11 6 6 1009.7 1009.7 0.0
02/01:00am 28.8 30.7 19.7 58 5.9 ENE 9 11 5 6 1010.3 1010.3 0.0
02/12:30am 29.6 31.3 20.2 57 6.2 E 11 13 6 7 1010.5 1010.5 0.0
02/12:00am 29.6 31.4 19.6 55 6.5 E 9 11 5 6 1010.7 1010.7 0.0
 
Date/Time
CST
Temp
°C
App
Temp
°C
Dew
Point
Rel
Hum
%
Delta-T
°C
Wind Press
QNH
hPa
Press
MSL
hPa
Rain
since 9 am
mm
Dir
 
Spd
km/h
Gust
km/h
Spd
kts
Gust
kts
01/11:30pm 30.3 33.7 19.3 51 7.2 CALM 0 0 0 0 1010.7 1010.7 0.0
01/11:00pm 30.7 32.9 19.1 50 7.5 N 6 7 3 4 1010.8 1010.8 0.0
01/10:30pm 31.7 34.1 20.0 50 7.7 N 7 7 4 4 1010.7 1010.7 0.0
01/10:00pm 32.6 34.1 20.5 49 8.1 N 13 17 7 9 1010.8 1010.8 0.0
01/09:30pm 32.9 35.1 20.4 47 8.3 NNW 9 13 5 7 1010.7 1010.7 0.0
01/09:00pm 32.9 34.6 20.1 47 8.5 NNW 11 17 6 9 1010.5 1010.5 0.0
01/08:30pm 33.2 33.6 20.7 47 8.4 N 19 24 10 13 1010.0 1010.0 0.0
01/08:00pm 33.6 33.9 20.4 46 8.8 N 19 24 10 13 1009.7 1009.7 0.0
01/07:30pm 34.2 33.9 19.1 41 9.9 N 19 24 10 13 1009.2 1009.2 0.0
01/07:00pm 35.0 34.6 18.1 36 11.0 N 17 22 9 12 1009.1 1009.1 0.0
01/06:30pm 35.9 36.2 18.0 34 11.7 NE 13 20 7 11 1008.6 1008.6 0.0
01/06:00pm 36.7 36.2 17.8 32 12.3 ENE 17 24 9 13 1008.2 1008.2 0.0
01/05:30pm 38.0 38.7 18.9 32 12.7 NE 13 20 7 11 1007.9 1007.9 0.0
01/05:00pm 37.9 38.0 18.3 31 12.9 NNE 15 22 8 12 1007.5 1007.5 0.0
01/04:30pm 37.9 37.8 17.8 30 13.1 ENE 15 22 8 12 1007.5 1007.5 0.0
01/04:00pm 38.5 38.3 18.4 31 13.2 N 17 24 9 13 1007.5 1007.5 0.0
01/03:30pm 37.6 37.6 17.1 30 13.3 ENE 13 24 7 13 1007.9 1007.9 0.0
01/03:00pm 38.4 37.8 16.7 28 14.0 ENE 15 22 8 12 1008.2 1008.2 0.0
01/02:30pm 38.2 36.8 17.0 28 13.7 NE 20 30 11 16 1008.6 1008.6 0.0
01/02:00pm 38.4 36.9 16.7 28 14.0 NNE 20 28 11 15 1009.1 1009.1 0.0
01/01:30pm 37.7 37.3 16.1 28 13.8 E 13 20 7 11 1009.5 1009.5 0.0
01/01:00pm 37.0 37.7 16.0 28 13.3 E 7 15 4 8 1010.2 1010.2 0.0
01/12:30pm 36.3 36.7 15.4 28 13.2 SSE 7 13 4 7 1010.8 1010.8 0.0
01/12:00pm 35.7 36.1 15.4 29 12.7 SSW 7 15 4 8 1011.4 1011.4 0.0
01/11:30am 34.5 34.9 15.4 32 11.9 SSW 7 11 4 6 1012.1 1012.1 0.0
01/11:00am 33.3 34.0 16.2 36 10.8 WSW 7 11 4 6 1012.4 1012.4 0.0
01/10:30am 32.8 33.5 16.2 37 10.4 WSW 7 11 4 6 1012.5 1012.5 0.0
01/10:00am 31.7 32.9 16.8 40 9.4 NW 6 9 3 5 1012.7 1012.7 0.0
01/09:30am 30.7 31.4 17.0 43 8.7 W 9 11 5 6 1012.4 1012.4 0.0
01/09:00am 30.1 33.0 18.2 49 7.6 CALM 0 0 0 0 1012.5 1012.5 0.0
01/08:30am 28.0 29.7 18.1 55 6.3 NE 6 7 3 4 1012.3 1012.3 0.0
01/08:00am 26.7 27.3 17.8 58 5.6 E 11 13 6 7 1012.2 1012.2 0.0
01/07:30am 25.3 25.2 17.0 60 5.1 ESE 13 20 7 11 1011.9 1011.9 0.0
01/07:00am 24.9 26.0 16.6 60 5.1 ENE 6 11 3 6 1011.4 1011.4 0.0
01/06:30am 25.3 26.4 16.7 59 5.3 WSW 6 7 3 4 1010.8 1010.8 0.0
01/06:00am 25.2 26.3 16.6 59 5.3 W 6 7 3 4 1010.4 1010.4 0.0
01/05:30am 24.8 25.7 16.2 58 5.3 NW 6 7 3 4 1010.0 1010.0 0.0
01/05:00am 25.3 26.2 16.2 57 5.6 NNW 6 7 3 4 1009.8 1009.8 0.0
01/04:30am 26.7 27.8 17.2 56 5.9 SW 7 11 4 6 1009.7 1009.7 0.0
01/04:00am 25.9 27.9 15.9 54 6.1 CALM 0 0 0 0 1009.5 1009.5 0.0
01/03:30am 25.6 27.1 15.6 54 6.1 NW 2 6 1 3 1009.4 1009.4 0.0
01/03:00am 25.4 25.8 15.4 54 6.0 WNW 7 9 4 5 1009.5 1009.5 0.0
01/02:30am 25.5 25.8 14.9 52 6.4 NW 7 9 4 5 1009.7 1009.7 0.0
01/02:00am 26.1 26.8 15.5 52 6.4 NW 6 6 3 3 1010.0 1010.0 0.0
01/01:30am 25.9 26.3 15.3 52 6.4 WNW 7 7 4 4 1010.2 1010.2 0.0

Other Formats:

Comma delimited format used in spreadsheet applications
http://www.bom.gov.au/fwo/IDD60801/IDD60801.95214.axf

JavaScript Object Notation format (JSON) in row-major order
http://www.bom.gov.au/fwo/IDD60801/IDD60801.95214.json